Ever Ursula — 3FCB9 — position and weather

sailwx.info

Track history (hours):
 
Tides and Currents Weather Stations Pressure Air Temp Water Temp Dewpoint Dewpoint Depression Visibility Wind Speed Wind Dir Waves Ship Positions

Ever Ursula

Last reported at 2016-Apr-27 01:29 UTC. Time now 2016-May-04 01:52 UTC.
Position N 34°12' E 140°08'.

Type: Cargo ship. MMSI: 357737000.

Date/timePositionNaut miles runAvg speedWind from/ knotsBaromVisibWave heightAir tempDewpointWater temp
2016-Apr-27 01:29N 34°12' E 140°08'2718.7
2016-Apr-27 00:04N 34°01' E 139°39'1218.9
2016-Apr-26 23:25N 33°55' E 139°26'1818.9
2016-Apr-26 22:27N 33°48' E 139°05'  
2016-Apr-24 07:12N 24°15' E 119°30'2917.4
2016-Apr-24 05:32N 23°56' E 119°05'3316.6
2016-Apr-24 03:33N 23°41' E 118°33'22818.3
2016-Apr-23 15:05N 22°20' E 114°42'2614.4
2016-Apr-23 13:17N 22°34' E 114°18'2 0.1
2016-Apr-22 20:12N 22°34' E 114°16'0 0.1
2016-Apr-22 19:30N 22°34' E 114°16'0 0.1
2016-Apr-22 18:30N 22°34' E 114°16'0 0.3
2016-Apr-22 17:28N 22°34' E 114°16'17 1.2
2016-Apr-22 03:33N 22°21' E 114°28'1414.2
2016-Apr-22 02:33N 22°08' E 114°22'1111.2
2016-Apr-22 01:33N 22°12' E 114°11'1111.1
2016-Apr-22 00:31N 22°21' E 114°03'11 1.0
2016-Apr-21 13:23N 22°27' E 113°53'10 5.1
2016-Apr-21 11:23N 22°21' E 114°02'1110.2
2016-Apr-21 10:18N 22°13' E 114°10'7 9.2
2016-Apr-21 09:33N 22°08' E 114°16'1414.1
2016-Apr-21 08:33N 22°10' E 114°31'20311.9
2016-Apr-20 15:28N 23°38' E 117°50'1313.7
2016-Apr-20 14:33N 23°48' E 117°58'1313.4
2016-Apr-20 13:33N 23°60' E 118°05'1413.2
2016-Apr-20 12:29N 24°08' E 118°17'1011.0
2016-Apr-20 11:33N 24°18' E 118°13'1111.1
2016-Apr-20 10:33N 24°25' E 118°04'4 1.3
2016-Apr-20 07:34N 24°27' E 118°00'0 0.0
2016-Apr-20 06:32N 24°27' E 118°00'0 0.1
2016-Apr-20 05:31N 24°27' E 118°00'0 0.0
2016-Apr-20 04:33N 24°27' E 118°00'0 0.1
2016-Apr-20 03:34N 24°27' E 118°00'0 0.1
2016-Apr-20 02:33N 24°27' E 118°00'0 0.0
2016-Apr-20 01:33N 24°27' E 118°00'0 0.1
2016-Apr-20 00:33N 24°27' E 118°00'0 0.2
2016-Apr-19 23:33N 24°27' E 118°00'8 8.3
2016-Apr-19 22:33N 24°22' E 118°08'8 8.0
2016-Apr-19 21:33N 24°16' E 118°14'1211.7
2016-Apr-19 20:33N 24°16' E 118°27'1413.6
2016-Apr-19 19:33N 24°21' E 118°41'1413.8
2016-Apr-19 18:32N 24°26' E 118°55'1714.0
2016-Apr-19 17:18N 24°32' E 119°13'1513.2
2016-Apr-19 16:11N 24°38' E 119°28'  
Track history (hours):
 
Tides and Currents Weather Stations Pressure Air Temp Water Temp Dewpoint Dewpoint Depression Visibility Wind Speed Wind Dir Waves Ship Positions

Ever Ursula

Last reported at 2016-Apr-27 01:29 UTC. Time now 2016-May-04 01:52 UTC.
Position N 34°12' E 140°08'.

Type: Cargo ship. MMSI: 357737000.

Date/timePositionNaut miles runAvg speedWind from/ knotsBaromVisibWave heightAir tempDewpointWater temp
2016-Apr-27 01:29N 34°12' E 140°08'2718.7
2016-Apr-27 00:04N 34°01' E 139°39'1218.9
2016-Apr-26 23:25N 33°55' E 139°26'1818.9
2016-Apr-26 22:27N 33°48' E 139°05'  
2016-Apr-24 07:12N 24°15' E 119°30'2917.4
2016-Apr-24 05:32N 23°56' E 119°05'3316.6
2016-Apr-24 03:33N 23°41' E 118°33'22818.3
2016-Apr-23 15:05N 22°20' E 114°42'2614.4
2016-Apr-23 13:17N 22°34' E 114°18'2 0.1
2016-Apr-22 20:12N 22°34' E 114°16'0 0.1
2016-Apr-22 19:30N 22°34' E 114°16'0 0.1
2016-Apr-22 18:30N 22°34' E 114°16'0 0.3
2016-Apr-22 17:28N 22°34' E 114°16'17 1.2
2016-Apr-22 03:33N 22°21' E 114°28'1414.2
2016-Apr-22 02:33N 22°08' E 114°22'1111.2
2016-Apr-22 01:33N 22°12' E 114°11'1111.1
2016-Apr-22 00:31N 22°21' E 114°03'11 1.0
2016-Apr-21 13:23N 22°27' E 113°53'10 5.1
2016-Apr-21 11:23N 22°21' E 114°02'1110.2
2016-Apr-21 10:18N 22°13' E 114°10'7 9.2
2016-Apr-21 09:33N 22°08' E 114°16'1414.1
2016-Apr-21 08:33N 22°10' E 114°31'20311.9
2016-Apr-20 15:28N 23°38' E 117°50'1313.7
2016-Apr-20 14:33N 23°48' E 117°58'1313.4
2016-Apr-20 13:33N 23°60' E 118°05'1413.2
2016-Apr-20 12:29N 24°08' E 118°17'1011.0
2016-Apr-20 11:33N 24°18' E 118°13'1111.1
2016-Apr-20 10:33N 24°25' E 118°04'4 1.3
2016-Apr-20 07:34N 24°27' E 118°00'0 0.0
2016-Apr-20 06:32N 24°27' E 118°00'0 0.1
2016-Apr-20 05:31N 24°27' E 118°00'0 0.0
2016-Apr-20 04:33N 24°27' E 118°00'0 0.1
2016-Apr-20 03:34N 24°27' E 118°00'0 0.1
2016-Apr-20 02:33N 24°27' E 118°00'0 0.0
2016-Apr-20 01:33N 24°27' E 118°00'0 0.1
2016-Apr-20 00:33N 24°27' E 118°00'0 0.2
2016-Apr-19 23:33N 24°27' E 118°00'8 8.3
2016-Apr-19 22:33N 24°22' E 118°08'8 8.0
2016-Apr-19 21:33N 24°16' E 118°14'1211.7
2016-Apr-19 20:33N 24°16' E 118°27'1413.6
2016-Apr-19 19:33N 24°21' E 118°41'1413.8
2016-Apr-19 18:32N 24°26' E 118°55'1714.0
2016-Apr-19 17:18N 24°32' E 119°13'1513.2
2016-Apr-19 16:11N 24°38' E 119°28'  

Dump ship's entire track history